Flight Track Log - Related Links

Times and Time Zones

All times are in EDT time to prevent confusion due to time zone crossing. See the N442GJ flight status page for this flight to view local times or setup timezone preferences in your user account.

Time Position Orientation Groundspeed Altitude Reporting Facility
EDT Latitude Longitude Course Direction KTS MPH feet Rate Location/Type
Wed 01:59:01 PM 27.4000 -82.5667 270° West 130 150 600  Level Tampa TRACON
Wed 01:59:31 PM 27.4000 -82.5833 270° West 169 194 2,000 2,000 Climbing Tampa TRACON
Wed 02:00:31 PM 27.4000 -82.6500 270° West 240 276 3,600 2,189 Climbing Tampa TRACON
Wed 02:02:10 PM 27.4492 -82.7650 296° West 213 245 7,800 2,604 Climbing Miami Center
Wed 02:03:10 PM 27.5167 -82.7967 337° Northwest 231 266 10,500 2,400 Climbing Miami Center
Wed 02:04:10 PM 27.5894 -82.8003 357° North 236 272 12,600 2,100 Climbing Miami Center
Wed 02:05:10 PM 27.6664 -82.8067 356° North 251 289 14,700 1,923 Climbing Miami Center
Wed 02:07:11 PM 27.8203 -82.8292 353° North 276 318 18,400 1,823 Climbing Jacksonville Center
Wed 02:08:11 PM 27.8953 -82.8456 349° North 276 318 20,200 1,800 Climbing Jacksonville Center
Wed 02:09:11 PM 27.9747 -82.8572 353° North 276 318 22,000 1,700 Climbing Jacksonville Center
Wed 02:10:11 PM 28.0539 -82.8433 North 276 318 23,600 1,450 Climbing Jacksonville Center
Wed 02:11:11 PM 28.1375 -82.8314 North 281 323 24,900 1,200 Climbing Jacksonville Center
Wed 02:12:11 PM 28.2314 -82.8147 North 304 350 26,000 1,150 Climbing Jacksonville Center
Wed 02:13:11 PM 28.3253 -82.8078 North 329 379 27,200 1,200 Climbing Jacksonville Center
Wed 02:14:11 PM 28.4169 -82.8500 338° Northwest 335 386 28,400 1,150 Climbing Jacksonville Center
Wed 02:15:11 PM 28.5108 -82.9019 334° Northwest 347 399 29,500 1,000 Climbing Jacksonville Center
Wed 02:16:11 PM 28.5861 -82.9444 334° Northwest 358 412 30,400 1,000 Climbing Jacksonville Center
Wed 02:17:11 PM 28.6883 -83.0039 333° Northwest 369 425 31,500 1,050 Climbing Jacksonville Center
Wed 02:18:11 PM 28.7822 -83.0561 334° Northwest 369 425 32,500 1,050 Climbing Jacksonville Center
Wed 02:19:11 PM 28.8781 -83.1108 333° Northwest 374 430 33,600 750 Climbing Jacksonville Center
Wed 02:20:11 PM 28.9761 -83.1583 337° Northwest 374 430 34,000 200 Climbing Jacksonville Center
Wed 02:21:11 PM 29.0783 -83.2206 332° Northwest 386 444 34,000  Level Jacksonville Center
Wed 02:22:11 PM 29.1761 -83.2944 327° Northwest 409 471 34,000  Level Jacksonville Center
Wed 02:23:11 PM 29.2781 -83.3711 327° Northwest 422 486 34,000  Level Jacksonville Center
Wed 02:24:11 PM 29.3800 -83.4503 326° Northwest 434 499 34,000  Level Jacksonville Center
Wed 02:25:11 PM 29.4819 -83.5272 327° Northwest 444 511 34,000  Level Jacksonville Center
Wed 02:26:11 PM 29.5861 -83.6067 326° Northwest 444 511 34,000  Level Jacksonville Center
Wed 02:27:11 PM 29.6858 -83.6864 325° Northwest 444 511 34,000  Level Jacksonville Center
Wed 02:28:11 PM 29.7981 -83.7686 328° Northwest 444 511 34,000  Level Jacksonville Center
Wed 02:29:11 PM 29.8975 -83.8461 326° Northwest 444 511 34,000  Level Jacksonville Center
Wed 02:30:11 PM 29.9972 -83.9214 327° Northwest 444 511 34,000  Level Jacksonville Center
Wed 02:31:11 PM 30.0967 -83.9994 326° Northwest 439 505 34,000  Level Jacksonville Center
Wed 02:32:11 PM 30.1964 -84.0775 326° Northwest 439 505 34,000  Level Jacksonville Center
Wed 02:33:11 PM 30.2978 -84.1556 326° Northwest 439 505 34,000  Level Jacksonville Center
Wed 02:34:11 PM 30.3972 -84.2317 327° Northwest 439 505 34,000  Level Jacksonville Center
Wed 02:35:11 PM 30.4967 -84.3078 327° Northwest 439 505 34,000  Level Jacksonville Center
Wed 02:36:11 PM 30.5878 -84.3839 324° Northwest 433 498 34,000  Level Jacksonville Center
Wed 02:37:11 PM 30.6892 -84.4628 326° Northwest 438 504 34,000  Level Jacksonville Center
Wed 02:38:11 PM 30.8008 -84.5469 327° Northwest 438 504 34,000  Level Jacksonville Center
Wed 02:39:11 PM 30.8894 -84.6211 324° Northwest 438 504 34,000  Level Jacksonville Center
Wed 02:40:11 PM 30.9886 -84.7003 326° Northwest 433 498 34,000  Level Jacksonville Center
Wed 02:41:11 PM 31.0897 -84.7800 326° Northwest 438 504 34,000  Level Jacksonville Center
Wed 02:42:11 PM 31.1908 -84.8572 327° Northwest 438 504 34,000  Level Jacksonville Center
Wed 02:44:20 PM 31.4150 -85.0389 325° Northwest 446 513 34,000  Level Atlanta Center
Wed 02:45:20 PM 31.5144 -85.1203 325° Northwest 441 507 34,000  Level Atlanta Center
Wed 02:46:20 PM 31.6139 -85.1997 326° Northwest 441 507 34,000  Level Atlanta Center
Wed 02:47:20 PM 31.7050 -85.2667 328° Northwest 441 507 34,000  Level Atlanta Center
Wed 02:48:20 PM 31.8044 -85.3464 326° Northwest 441 507 34,000  Level Atlanta Center
Wed 02:49:20 PM 31.9017 -85.4258 325° Northwest 436 502 34,000 -550 Level Atlanta Center
Wed 02:50:20 PM 31.9989 -85.5058 325° Northwest 436 502 32,900 -1,250 Descending Atlanta Center
Wed 02:51:20 PM 32.0958 -85.5833 326° Northwest 431 496 31,500 -1,350 Descending Atlanta Center
Wed 02:52:20 PM 32.1931 -85.6611 326° Northwest 426 490 30,200 -750 Descending Atlanta Center
Wed 02:53:20 PM 32.2900 -85.7417 325° Northwest 426 490 30,000 -100 Descending Atlanta Center
Wed 02:54:20 PM 32.4014 -85.8347 325° Northwest 431 496 30,000 -700 Level Atlanta Center
Wed 02:55:20 PM 32.4961 -85.9178 324° Northwest 431 496 28,600 -1,200 Descending Atlanta Center
Wed 02:56:20 PM 32.6036 -85.9992 327° Northwest 443 510 27,600 -1,000 Descending Atlanta Center
Wed 02:57:20 PM 32.7003 -86.0803 325° Northwest 443 510 26,600 -1,050 Descending Atlanta Center
Wed 02:58:20 PM 32.8011 -86.1667 324° Northwest 443 510 25,500 -1,050 Descending Atlanta Center
Wed 02:59:20 PM 32.8978 -86.2456 326° Northwest 443 510 24,500 -900 Descending Atlanta Center
Wed 03:00:20 PM 32.9986 -86.3300 325° Northwest 443 510 23,700 -750 Descending Atlanta Center
Wed 03:01:20 PM 33.0972 -86.4117 325° Northwest 443 510 23,000 -1,050 Descending Atlanta Center
Wed 03:02:20 PM 33.1958 -86.4964 324° Northwest 443 510 21,600 -1,700 Descending Atlanta Center
Wed 03:03:20 PM 33.2881 -86.5786 323° Northwest 437 503 19,600 -1,750 Descending Atlanta Center
Wed 03:04:20 PM 33.3722 -86.6456 326° Northwest 421 484 18,100 -800 Descending Atlanta Center
Wed 03:05:20 PM 33.4644 -86.7231 325° Northwest 410 472 18,000 -100 Descending Atlanta Center
Wed 03:06:20 PM 33.5544 -86.8008 324° Northwest 405 466 17,900 -1,100 Descending Atlanta Center
Wed 03:07:20 PM 33.6467 -86.8786 325° Northwest 405 466 15,800 -2,400 Descending Atlanta Center
Wed 03:07:35 PM 33.6858 -86.8972 338° Northwest 399 459 14,900 -2,824 Descending Atlanta Center
Wed 03:08:11 PM 33.7528 -86.8969 360° North 389 448 13,400 -2,412 Descending Atlanta Center
Wed 03:09:12 PM 33.8594 -86.8906 North 380 437 11,000 -1,785 Descending Atlanta Center
Wed 03:10:12 PM 33.9492 -86.8861 North 291 335 9,800 -1,641 Descending Atlanta Center
Wed 03:11:20 PM 34.0289 -86.8736 North 311 358 7,500 -1,828 Descending Atlanta Center
Wed 03:12:20 PM 34.1000 -86.8686 North 275 316 5,900 -1,550 Descending Atlanta Center
Wed 03:13:20 PM 34.1667 -86.8633 North 250 288 4,400 -1,500 Descending Atlanta Center

Login

Don't have an account? Register now (free) for customized features, flight alerts, and more!